sensor_id;sensor_type;location;lat;lon;timestamp;pressure;altitude;pressure_sealevel;temperature;humidity
72423;BME280;60413;55.658;37.498;2022-11-20T00:03:40;98886.72;;;-3.27;100.00
72423;BME280;60413;55.658;37.498;2022-11-20T00:25:39;98904.81;;;-3.10;100.00
72423;BME280;60413;55.658;37.498;2022-11-20T00:29:03;98899.44;;;-3.25;100.00
72423;BME280;60413;55.658;37.498;2022-11-20T00:31:29;98890.09;;;-3.26;100.00
72423;BME280;60413;55.658;37.498;2022-11-20T00:33:55;98877.31;;;-3.36;100.00
72423;BME280;60413;55.658;37.498;2022-11-20T00:40:27;98904.97;;;-3.12;100.00
72423;BME280;60413;55.658;37.498;2022-11-20T00:47:12;98888.28;;;-3.34;100.00
72423;BME280;60413;55.658;37.498;2022-11-20T00:49:45;98847.19;;;-3.44;100.00
72423;BME280;60413;55.658;37.498;2022-11-20T00:52:11;98871.81;;;-3.41;100.00
72423;BME280;60413;55.658;37.498;2022-11-20T00:54:37;98882.94;;;-3.41;100.00
72423;BME280;60413;55.658;37.498;2022-11-20T00:57:26;98907.97;;;-3.25;100.00
72423;BME280;60413;55.658;37.498;2022-11-20T01:07:48;98903.22;;;-3.38;100.00
72423;BME280;60413;55.658;37.498;2022-11-20T01:10:14;98904.72;;;-3.35;100.00
72423;BME280;60413;55.658;37.498;2022-11-20T01:12:43;98841.81;;;-3.85;100.00
72423;BME280;60413;55.658;37.498;2022-11-20T01:16:26;98885.25;;;-3.64;100.00
72423;BME280;60413;55.658;37.498;2022-11-20T01:19:13;98886.28;;;-3.75;100.00
72423;BME280;60413;55.658;37.498;2022-11-20T01:21:41;98901.94;;;-3.68;100.00
72423;BME280;60413;55.658;37.498;2022-11-20T01:24:11;98901.44;;;-3.72;100.00
72423;BME280;60413;55.658;37.498;2022-11-20T01:26:39;98876.81;;;-3.74;100.00
72423;BME280;60413;55.658;37.498;2022-11-20T01:29:05;98884.75;;;-3.67;100.00
72423;BME280;60413;55.658;37.498;2022-11-20T01:31:33;98874.75;;;-3.70;100.00
72423;BME280;60413;55.658;37.498;2022-11-20T01:34:12;98868.84;;;-3.89;100.00
72423;BME280;60413;55.658;37.498;2022-11-20T01:36:40;98896.34;;;-3.63;100.00
72423;BME280;60413;55.658;37.498;2022-11-20T01:55:03;98928.06;;;-3.63;100.00
72423;BME280;60413;55.658;37.498;2022-11-20T02:02:17;98904.69;;;-3.96;100.00
72423;BME280;60413;55.658;37.498;2022-11-20T02:09:04;98919.91;;;-4.02;100.00
72423;BME280;60413;55.658;37.498;2022-11-20T02:11:31;98917.34;;;-4.02;100.00
72423;BME280;60413;55.658;37.498;2022-11-20T02:13:57;98953.88;;;-3.81;100.00
72423;BME280;60413;55.658;37.498;2022-11-20T02:16:30;98916.81;;;-4.06;100.00
72423;BME280;60413;55.658;37.498;2022-11-20T02:18:59;98947.38;;;-3.85;100.00
72423;BME280;60413;55.658;37.498;2022-11-20T02:21:49;98963.03;;;-3.78;100.00
72423;BME280;60413;55.658;37.498;2022-11-20T02:24:21;98953.34;;;-3.84;100.00
72423;BME280;60413;55.658;37.498;2022-11-20T02:29:29;98945.09;;;-3.88;100.00
72423;BME280;60413;55.658;37.498;2022-11-20T02:31:57;98968.56;;;-3.73;100.00
72423;BME280;60413;55.658;37.498;2022-11-20T02:34:24;98935.56;;;-3.96;100.00
72423;BME280;60413;55.658;37.498;2022-11-20T02:36:51;98937.47;;;-3.98;100.00
72423;BME280;60413;55.658;37.498;2022-11-20T02:39:19;98941.00;;;-3.81;100.00
72423;BME280;60413;55.658;37.498;2022-11-20T02:41:49;98907.56;;;-4.17;100.00
72423;BME280;60413;55.658;37.498;2022-11-20T02:44:15;98921.00;;;-4.05;100.00
72423;BME280;60413;55.658;37.498;2022-11-20T02:46:43;98917.13;;;-4.09;100.00
72423;BME280;60413;55.658;37.498;2022-11-20T02:49:09;98962.75;;;-3.75;100.00
72423;BME280;60413;55.658;37.498;2022-11-20T02:56:00;98979.22;;;-3.68;100.00
72423;BME280;60413;55.658;37.498;2022-11-20T03:07:05;98963.88;;;-3.96;100.00
72423;BME280;60413;55.658;37.498;2022-11-20T03:30:37;98991.22;;;-3.95;100.00
72423;BME280;60413;55.658;37.498;2022-11-20T03:36:43;98971.59;;;-3.96;100.00
72423;BME280;60413;55.658;37.498;2022-11-20T03:39:09;98963.97;;;-4.05;100.00
72423;BME280;60413;55.658;37.498;2022-11-20T03:41:40;98968.00;;;-4.03;100.00
72423;BME280;60413;55.658;37.498;2022-11-20T03:44:09;98959.63;;;-4.05;100.00
72423;BME280;60413;55.658;37.498;2022-11-20T03:46:35;98957.84;;;-4.04;100.00
72423;BME280;60413;55.658;37.498;2022-11-20T03:49:01;98959.91;;;-4.08;100.00
72423;BME280;60413;55.658;37.498;2022-11-20T03:51:32;98965.66;;;-4.14;100.00
72423;BME280;60413;55.658;37.498;2022-11-20T03:54:01;99008.09;;;-3.82;100.00
72423;BME280;60413;55.658;37.498;2022-11-20T03:56:36;98987.56;;;-3.92;100.00
72423;BME280;60413;55.658;37.498;2022-11-20T03:59:03;98984.34;;;-3.94;100.00
72423;BME280;60413;55.658;37.498;2022-11-20T04:01:31;98985.88;;;-4.01;100.00
72423;BME280;60413;55.658;37.498;2022-11-20T04:03:58;98955.81;;;-4.19;100.00
72423;BME280;60413;55.658;37.498;2022-11-20T04:40:36;99021.31;;;-4.13;100.00
72423;BME280;60413;55.658;37.498;2022-11-20T04:46:26;98996.44;;;-4.40;100.00
72423;BME280;60413;55.658;37.498;2022-11-20T04:48:55;99057.78;;;-4.00;100.00
72423;BME280;60413;55.658;37.498;2022-11-20T04:51:21;99060.44;;;-3.92;100.00
72423;BME280;60413;55.658;37.498;2022-11-20T04:53:46;99033.88;;;-4.10;100.00
72423;BME280;60413;55.658;37.498;2022-11-20T04:56:16;99009.00;;;-4.19;100.00
72423;BME280;60413;55.658;37.498;2022-11-20T04:59:03;99075.84;;;-3.82;100.00
72423;BME280;60413;55.658;37.498;2022-11-20T05:01:29;99021.88;;;-4.19;100.00
72423;BME280;60413;55.658;37.498;2022-11-20T05:03:55;99069.28;;;-3.94;100.00
72423;BME280;60413;55.658;37.498;2022-11-20T05:09:37;99085.25;;;-3.91;100.00
72423;BME280;60413;55.658;37.498;2022-11-20T05:12:03;99063.00;;;-4.10;100.00
72423;BME280;60413;55.658;37.498;2022-11-20T05:14:29;99096.56;;;-4.01;100.00
72423;BME280;60413;55.658;37.498;2022-11-20T05:16:58;99073.06;;;-4.16;100.00
72423;BME280;60413;55.658;37.498;2022-11-20T05:19:23;99084.13;;;-4.06;100.00
72423;BME280;60413;55.658;37.498;2022-11-20T05:21:49;99072.84;;;-4.23;100.00
72423;BME280;60413;55.658;37.498;2022-11-20T05:24:15;99053.56;;;-4.37;100.00
72423;BME280;60413;55.658;37.498;2022-11-20T05:26:41;99047.59;;;-4.37;100.00
72423;BME280;60413;55.658;37.498;2022-11-20T05:33:15;99053.84;;;-4.40;100.00
72423;BME280;60413;55.658;37.498;2022-11-20T05:35:41;99117.97;;;-4.01;100.00
72423;BME280;60413;55.658;37.498;2022-11-20T05:38:07;99061.69;;;-4.41;100.00
72423;BME280;60413;55.658;37.498;2022-11-20T05:40:33;99103.66;;;-4.13;100.00
72423;BME280;60413;55.658;37.498;2022-11-20T05:43:00;99088.41;;;-4.24;100.00
72423;BME280;60413;55.658;37.498;2022-11-20T05:45:51;99066.03;;;-4.42;100.00
72423;BME280;60413;55.658;37.498;2022-11-20T05:48:18;99062.53;;;-4.41;100.00
72423;BME280;60413;55.658;37.498;2022-11-20T05:50:43;99089.00;;;-4.31;100.00
72423;BME280;60413;55.658;37.498;2022-11-20T05:53:13;99074.41;;;-4.40;100.00
72423;BME280;60413;55.658;37.498;2022-11-20T05:55:39;99104.63;;;-4.14;100.00
72423;BME280;60413;55.658;37.498;2022-11-20T05:58:05;99090.31;;;-4.26;100.00
72423;BME280;60413;55.658;37.498;2022-11-20T06:00:32;99120.38;;;-3.99;100.00
72423;BME280;60413;55.658;37.498;2022-11-20T06:02:58;99103.44;;;-4.20;100.00
72423;BME280;60413;55.658;37.498;2022-11-20T06:05:30;99103.00;;;-4.15;100.00
72423;BME280;60413;55.658;37.498;2022-11-20T06:08:00;99151.97;;;-3.79;100.00
72423;BME280;60413;55.658;37.498;2022-11-20T06:10:25;99153.19;;;-3.74;100.00
72423;BME280;60413;55.658;37.498;2022-11-20T06:12:52;99128.19;;;-3.91;100.00
72423;BME280;60413;55.658;37.498;2022-11-20T06:15:17;99114.75;;;-4.13;100.00
72423;BME280;60413;55.658;37.498;2022-11-20T06:17:43;99157.66;;;-3.76;100.00
72423;BME280;60413;55.658;37.498;2022-11-20T06:20:10;99143.53;;;-3.72;100.00
72423;BME280;60413;55.658;37.498;2022-11-20T06:22:39;99109.13;;;-3.98;100.00
72423;BME280;60413;55.658;37.498;2022-11-20T06:25:08;99117.75;;;-3.89;100.00
72423;BME280;60413;55.658;37.498;2022-11-20T06:27:34;99181.31;;;-3.62;100.00
72423;BME280;60413;55.658;37.498;2022-11-20T06:30:00;99154.34;;;-3.68;100.00
72423;BME280;60413;55.658;37.498;2022-11-20T06:32:26;99166.66;;;-3.62;100.00
72423;BME280;60413;55.658;37.498;2022-11-20T06:34:52;99191.19;;;-3.40;100.00
72423;BME280;60413;55.658;37.498;2022-11-20T06:37:18;99123.38;;;-3.76;100.00
72423;BME280;60413;55.658;37.498;2022-11-20T06:39:44;99152.97;;;-3.62;100.00
72423;BME280;60413;55.658;37.498;2022-11-20T06:42:10;99125.22;;;-3.68;100.00
72423;BME280;60413;55.658;37.498;2022-11-20T06:44:41;99158.59;;;-3.49;100.00
72423;BME280;60413;55.658;37.498;2022-11-20T06:47:07;99133.31;;;-3.63;100.00
72423;BME280;60413;55.658;37.498;2022-11-20T06:49:33;99163.50;;;-3.38;100.00
72423;BME280;60413;55.658;37.498;2022-11-20T06:51:59;99149.06;;;-3.48;100.00
72423;BME280;60413;55.658;37.498;2022-11-20T06:59:03;99175.94;;;-3.15;100.00
72423;BME280;60413;55.658;37.498;2022-11-20T07:01:31;99180.81;;;-3.12;100.00
72423;BME280;60413;55.658;37.498;2022-11-20T07:03:57;99149.88;;;-3.30;100.00
72423;BME280;60413;55.658;37.498;2022-11-20T07:06:40;99175.38;;;-3.27;100.00
72423;BME280;60413;55.658;37.498;2022-11-20T07:09:30;99131.63;;;-3.55;100.00
72423;BME280;60413;55.658;37.498;2022-11-20T07:12:49;99170.78;;;-3.33;100.00
72423;BME280;60413;55.658;37.498;2022-11-20T07:29:19;99200.91;;;-2.98;100.00
72423;BME280;60413;55.658;37.498;2022-11-20T07:32:05;99160.56;;;-3.25;100.00
72423;BME280;60413;55.658;37.498;2022-11-20T07:34:39;99173.66;;;-3.18;100.00
72423;BME280;60413;55.658;37.498;2022-11-20T07:37:06;99166.06;;;-3.20;100.00
72423;BME280;60413;55.658;37.498;2022-11-20T08:59:30;99228.94;;;-2.58;100.00
72423;BME280;60413;55.658;37.498;2022-11-20T09:02:17;99253.09;;;-2.42;100.00
72423;BME280;60413;55.658;37.498;2022-11-20T09:04:44;99254.25;;;-2.36;100.00
72423;BME280;60413;55.658;37.498;2022-11-20T09:07:16;99288.03;;;-2.03;100.00
72423;BME280;60413;55.658;37.498;2022-11-20T09:09:42;99272.88;;;-2.24;100.00
72423;BME280;60413;55.658;37.498;2022-11-20T09:12:08;99300.13;;;-2.03;100.00
72423;BME280;60413;55.658;37.498;2022-11-20T09:14:45;99287.97;;;-2.11;100.00
72423;BME280;60413;55.658;37.498;2022-11-20T09:17:14;99266.50;;;-2.38;100.00
72423;BME280;60413;55.658;37.498;2022-11-20T09:53:13;99340.53;;;-1.94;100.00
72423;BME280;60413;55.658;37.498;2022-11-20T09:55:51;99347.56;;;-2.05;100.00
72423;BME280;60413;55.658;37.498;2022-11-20T10:02:44;99317.38;;;-2.30;100.00
72423;BME280;60413;55.658;37.498;2022-11-20T10:35:36;99369.06;;;-1.78;100.00
72423;BME280;60413;55.658;37.498;2022-11-20T10:38:15;99359.03;;;-1.81;100.00
72423;BME280;60413;55.658;37.498;2022-11-20T10:41:06;99370.63;;;-1.85;100.00
72423;BME280;60413;55.658;37.498;2022-11-20T10:47:36;99339.41;;;-2.18;100.00
72423;BME280;60413;55.658;37.498;2022-11-20T10:50:15;99342.94;;;-2.19;100.00
72423;BME280;60413;55.658;37.498;2022-11-20T10:57:02;99353.28;;;-2.19;100.00
72423;BME280;60413;55.658;37.498;2022-11-20T11:02:22;99340.84;;;-2.24;100.00
72423;BME280;60413;55.658;37.498;2022-11-20T11:09:30;99403.50;;;-1.95;100.00
72423;BME280;60413;55.658;37.498;2022-11-20T11:13:27;99345.72;;;-2.38;100.00
72423;BME280;60413;55.658;37.498;2022-11-20T11:20:19;99349.81;;;-2.46;100.00
72423;BME280;60413;55.658;37.498;2022-11-20T11:23:29;99355.09;;;-2.55;100.00
72423;BME280;60413;55.658;37.498;2022-11-20T11:26:00;99370.25;;;-2.52;100.00
72423;BME280;60413;55.658;37.498;2022-11-20T11:28:30;99368.06;;;-2.65;100.00
72423;BME280;60413;55.658;37.498;2022-11-20T11:30:58;99375.28;;;-2.51;100.00
72423;BME280;60413;55.658;37.498;2022-11-20T11:33:31;99410.44;;;-2.50;100.00
72423;BME280;60413;55.658;37.498;2022-11-20T11:36:03;99416.69;;;-2.52;100.00
72423;BME280;60413;55.658;37.498;2022-11-20T11:38:41;99407.16;;;-2.42;100.00
72423;BME280;60413;55.658;37.498;2022-11-20T11:41:22;99354.28;;;-2.74;100.00
72423;BME280;60413;55.658;37.498;2022-11-20T11:43:57;99379.41;;;-2.58;100.00
72423;BME280;60413;55.658;37.498;2022-11-20T11:47:15;99407.66;;;-2.38;100.00
72423;BME280;60413;55.658;37.498;2022-11-20T11:49:44;99381.19;;;-2.40;100.00
72423;BME280;60413;55.658;37.498;2022-11-20T11:52:18;99406.03;;;-2.21;100.00
72423;BME280;60413;55.658;37.498;2022-11-20T11:54:59;99341.28;;;-2.64;100.00
72423;BME280;60413;55.658;37.498;2022-11-20T11:57:46;99362.97;;;-2.57;100.00
72423;BME280;60413;55.658;37.498;2022-11-20T12:00:17;99400.78;;;-2.30;100.00
72423;BME280;60413;55.658;37.498;2022-11-20T12:05:29;99419.75;;;-2.21;100.00
72423;BME280;60413;55.658;37.498;2022-11-20T12:11:06;99423.66;;;-2.35;100.00
72423;BME280;60413;55.658;37.498;2022-11-20T12:13:46;99362.97;;;-2.75;100.00
72423;BME280;60413;55.658;37.498;2022-11-20T12:16:35;99381.31;;;-2.60;100.00
72423;BME280;60413;55.658;37.498;2022-11-20T12:19:10;99393.50;;;-2.70;100.00
72423;BME280;60413;55.658;37.498;2022-11-20T12:21:50;99387.06;;;-2.66;100.00
72423;BME280;60413;55.658;37.498;2022-11-20T12:32:46;99382.28;;;-2.61;100.00
72423;BME280;60413;55.658;37.498;2022-11-20T12:43:25;99381.06;;;-2.85;100.00
72423;BME280;60413;55.658;37.498;2022-11-20T12:50:06;99420.13;;;-2.52;100.00
72423;BME280;60413;55.658;37.498;2022-11-20T13:00:25;99433.81;;;-2.51;100.00
72423;BME280;60413;55.658;37.498;2022-11-20T13:06:16;99443.91;;;-2.58;100.00
72423;BME280;60413;55.658;37.498;2022-11-20T13:08:58;99404.38;;;-3.04;100.00
72423;BME280;60413;55.658;37.498;2022-11-20T13:11:37;99424.53;;;-2.90;100.00
72423;BME280;60413;55.658;37.498;2022-11-20T13:14:41;99443.44;;;-2.71;100.00
72423;BME280;60413;55.658;37.498;2022-11-20T13:19:54;99392.09;;;-3.10;100.00
72423;BME280;60413;55.658;37.498;2022-11-20T13:22:27;99405.34;;;-3.05;100.00
72423;BME280;60413;55.658;37.498;2022-11-20T13:24:53;99405.88;;;-3.02;100.00
72423;BME280;60413;55.658;37.498;2022-11-20T13:27:23;99411.25;;;-2.95;100.00
72423;BME280;60413;55.658;37.498;2022-11-20T13:30:15;99461.66;;;-2.73;100.00
72423;BME280;60413;55.658;37.498;2022-11-20T13:32:48;99461.59;;;-2.63;100.00
72423;BME280;60413;55.658;37.498;2022-11-20T13:35:26;99442.00;;;-2.74;100.00
72423;BME280;60413;55.658;37.498;2022-11-20T13:38:12;99424.25;;;-2.87;100.00
72423;BME280;60413;55.658;37.498;2022-11-20T13:40:56;99427.44;;;-2.75;100.00
72423;BME280;60413;55.658;37.498;2022-11-20T13:43:42;99418.59;;;-2.72;100.00
72423;BME280;60413;55.658;37.498;2022-11-20T13:46:13;99455.13;;;-2.49;100.00
72423;BME280;60413;55.658;37.498;2022-11-20T13:48:51;99459.03;;;-2.63;100.00
72423;BME280;60413;55.658;37.498;2022-11-20T13:56:04;99420.13;;;-2.80;100.00
72423;BME280;60413;55.658;37.498;2022-11-20T14:01:51;99425.28;;;-2.80;100.00
72423;BME280;60413;55.658;37.498;2022-11-20T14:04:43;99441.56;;;-2.79;100.00
72423;BME280;60413;55.658;37.498;2022-11-20T14:07:25;99443.03;;;-2.67;100.00
72423;BME280;60413;55.658;37.498;2022-11-20T14:10:28;99414.13;;;-2.98;100.00
72423;BME280;60413;55.658;37.498;2022-11-20T14:12:57;99461.28;;;-2.78;100.00
72423;BME280;60413;55.658;37.498;2022-11-20T14:15:57;99431.94;;;-3.05;100.00
72423;BME280;60413;55.658;37.498;2022-11-20T14:26:14;99457.75;;;-3.14;100.00
72423;BME280;60413;55.658;37.498;2022-11-20T14:28:59;99444.22;;;-3.26;100.00
72423;BME280;60413;55.658;37.498;2022-11-20T14:31:31;99429.75;;;-3.27;100.00
72423;BME280;60413;55.658;37.498;2022-11-20T14:33:58;99439.06;;;-3.26;100.00
72423;BME280;60413;55.658;37.498;2022-11-20T14:37:41;99504.75;;;-2.83;100.00
72423;BME280;60413;55.658;37.498;2022-11-20T14:44:33;99503.84;;;-2.92;100.00
72423;BME280;60413;55.658;37.498;2022-11-20T14:47:22;99532.56;;;-2.77;100.00
72423;BME280;60413;55.658;37.498;2022-11-20T14:49:52;99458.03;;;-3.18;100.00
72423;BME280;60413;55.658;37.498;2022-11-20T14:52:24;99499.72;;;-2.85;100.00
72423;BME280;60413;55.658;37.498;2022-11-20T14:58:57;99482.81;;;-2.97;100.00
72423;BME280;60413;55.658;37.498;2022-11-20T15:05:46;99496.94;;;-3.01;100.00
72423;BME280;60413;55.658;37.498;2022-11-20T15:08:14;99451.81;;;-3.25;100.00
72423;BME280;60413;55.658;37.498;2022-11-20T15:14:47;99465.34;;;-3.13;100.00
72423;BME280;60413;55.658;37.498;2022-11-20T15:21:03;99485.63;;;-2.90;100.00
72423;BME280;60413;55.658;37.498;2022-11-20T15:24:17;99493.91;;;-2.87;100.00
72423;BME280;60413;55.658;37.498;2022-11-20T15:28:19;99490.53;;;-2.87;100.00
72423;BME280;60413;55.658;37.498;2022-11-20T15:30:55;99458.03;;;-3.18;100.00
72423;BME280;60413;55.658;37.498;2022-11-20T15:33:23;99459.91;;;-3.10;100.00
72423;BME280;60413;55.658;37.498;2022-11-20T15:35:52;99441.50;;;-3.25;100.00
72423;BME280;60413;55.658;37.498;2022-11-20T15:42:43;99488.88;;;-2.88;100.00
72423;BME280;60413;55.658;37.498;2022-11-20T15:45:30;99440.63;;;-3.06;100.00
72423;BME280;60413;55.658;37.498;2022-11-20T15:48:29;99493.22;;;-2.61;100.00
72423;BME280;60413;55.658;37.498;2022-11-20T16:00:21;99500.44;;;-2.65;100.00
72423;BME280;60413;55.658;37.498;2022-11-20T16:02:47;99476.22;;;-2.82;100.00
72423;BME280;60413;55.658;37.498;2022-11-20T16:05:13;99500.22;;;-2.71;100.00
72423;BME280;60413;55.658;37.498;2022-11-20T16:07:40;99487.88;;;-2.77;100.00
72423;BME280;60413;55.658;37.498;2022-11-20T16:10:22;99477.44;;;-2.86;100.00
72423;BME280;60413;55.658;37.498;2022-11-20T16:12:58;99451.09;;;-3.07;100.00
72423;BME280;60413;55.658;37.498;2022-11-20T16:19:57;99486.59;;;-2.91;100.00
72423;BME280;60413;55.658;37.498;2022-11-20T16:22:22;99475.22;;;-2.99;100.00
72423;BME280;60413;55.658;37.498;2022-11-20T16:24:51;99485.78;;;-2.92;100.00
72423;BME280;60413;55.658;37.498;2022-11-20T16:27:20;99458.13;;;-3.09;100.00
72423;BME280;60413;55.658;37.498;2022-11-20T16:29:47;99433.66;;;-3.33;100.00
72423;BME280;60413;55.658;37.498;2022-11-20T16:32:13;99493.97;;;-3.06;100.00
72423;BME280;60413;55.658;37.498;2022-11-20T16:34:39;99420.28;;;-3.46;100.00
72423;BME280;60413;55.658;37.498;2022-11-20T16:37:08;99477.56;;;-3.15;100.00
72423;BME280;60413;55.658;37.498;2022-11-20T16:39:54;99420.81;;;-3.43;100.00
72423;BME280;60413;55.658;37.498;2022-11-20T16:42:53;99469.56;;;-3.12;100.00
72423;BME280;60413;55.658;37.498;2022-11-20T16:46:07;99502.34;;;-2.94;100.00
72423;BME280;60413;55.658;37.498;2022-11-20T16:48:37;99455.06;;;-3.23;100.00
72423;BME280;60413;55.658;37.498;2022-11-20T16:51:11;99451.97;;;-3.26;100.00
72423;BME280;60413;55.658;37.498;2022-11-20T16:54:11;99504.25;;;-2.96;100.00
72423;BME280;60413;55.658;37.498;2022-11-20T16:56:45;99461.97;;;-3.13;100.00
72423;BME280;60413;55.658;37.498;2022-11-20T16:59:31;99466.59;;;-3.17;100.00
72423;BME280;60413;55.658;37.498;2022-11-20T17:02:10;99436.91;;;-3.31;100.00
72423;BME280;60413;55.658;37.498;2022-11-20T17:04:39;99443.69;;;-3.20;100.00
72423;BME280;60413;55.658;37.498;2022-11-20T17:10:52;99439.03;;;-3.17;100.00
72423;BME280;60413;55.658;37.498;2022-11-20T17:13:20;99451.28;;;-3.19;100.00
72423;BME280;60413;55.658;37.498;2022-11-20T17:15:48;99451.66;;;-3.13;100.00
72423;BME280;60413;55.658;37.498;2022-11-20T17:18:20;99462.34;;;-3.08;100.00
72423;BME280;60413;55.658;37.498;2022-11-20T17:20:53;99444.75;;;-3.23;100.00
72423;BME280;60413;55.658;37.498;2022-11-20T17:35:29;99464.00;;;-3.07;100.00
72423;BME280;60413;55.658;37.498;2022-11-20T17:45:57;99511.69;;;-2.84;100.00
72423;BME280;60413;55.658;37.498;2022-11-20T17:52:12;99441.63;;;-3.17;100.00
72423;BME280;60413;55.658;37.498;2022-11-20T17:54:41;99510.94;;;-2.76;100.00
72423;BME280;60413;55.658;37.498;2022-11-20T17:57:13;99494.28;;;-2.82;100.00
72423;BME280;60413;55.658;37.498;2022-11-20T18:13:48;99451.75;;;-3.05;100.00
72423;BME280;60413;55.658;37.498;2022-11-20T18:21:14;99500.75;;;-2.77;100.00
72423;BME280;60413;55.658;37.498;2022-11-20T18:24:36;99480.97;;;-2.77;100.00
72423;BME280;60413;55.658;37.498;2022-11-20T18:27:29;99499.66;;;-2.65;100.00
72423;BME280;60413;55.658;37.498;2022-11-20T18:34:12;99480.75;;;-2.93;100.00
72423;BME280;60413;55.658;37.498;2022-11-20T18:36:39;99474.13;;;-3.06;100.00
72423;BME280;60413;55.658;37.498;2022-11-20T18:40:01;99477.94;;;-3.00;100.00
72423;BME280;60413;55.658;37.498;2022-11-20T18:43:18;99450.03;;;-3.14;100.00
72423;BME280;60413;55.658;37.498;2022-11-20T18:55:45;99514.06;;;-2.72;100.00
72423;BME280;60413;55.658;37.498;2022-11-20T19:14:53;99493.78;;;-2.95;100.00
72423;BME280;60413;55.658;37.498;2022-11-20T19:17:29;99409.69;;;-3.43;100.00
72423;BME280;60413;55.658;37.498;2022-11-20T19:54:41;99481.97;;;-2.98;100.00
